createdAt,value
2023-01-24T00:00:47.107Z,15.98
2023-01-24T00:03:13.613Z,14.90
2023-01-24T00:05:44.991Z,11.82
2023-01-24T00:08:15.170Z,16.13
2023-01-24T00:10:41.766Z,12.93
2023-01-24T00:13:10.561Z,14.15
2023-01-24T00:15:36.770Z,14.05
2023-01-24T00:18:03.107Z,13.85
2023-01-24T00:20:29.317Z,11.07
2023-01-24T00:22:55.526Z,11.52
2023-01-24T00:25:23.426Z,13.15
2023-01-24T00:27:49.868Z,14.50
2023-01-24T00:30:16.192Z,11.60
2023-01-24T00:32:42.460Z,13.32
2023-01-24T00:35:08.822Z,13.07
2023-01-24T00:37:35.197Z,14.40
2023-01-24T00:40:01.401Z,13.52
2023-01-24T00:42:27.605Z,14.55
2023-01-24T00:44:53.813Z,14.63
2023-01-24T00:47:20.073Z,10.93
2023-01-24T00:49:46.332Z,13.05
2023-01-24T00:52:12.759Z,12.55
2023-01-24T00:54:39.265Z,15.27
2023-01-24T00:57:05.469Z,14.77
2023-01-24T00:59:31.703Z,12.93
2023-01-24T01:01:57.899Z,11.40
2023-01-24T01:04:24.144Z,12.90
2023-01-24T01:06:50.334Z,15.43
2023-01-24T01:09:16.550Z,15.13
2023-01-24T01:11:42.798Z,14.25
2023-01-24T01:14:09.733Z,15.80
2023-01-24T01:16:38.654Z,14.27
2023-01-24T01:19:06.123Z,13.43
2023-01-24T01:21:32.379Z,14.77
2023-01-24T01:23:58.648Z,11.90
2023-01-24T01:26:24.853Z,12.85
2023-01-24T01:28:51.808Z,12.00
2023-01-24T01:31:18.128Z,16.77
2023-01-24T01:33:44.869Z,14.95
2023-01-24T01:36:11.214Z,17.55
2023-01-24T01:38:37.408Z,13.80
2023-01-24T01:41:05.155Z,16.23
2023-01-24T01:43:31.760Z,16.55
2023-01-24T01:46:03.788Z,17.23
2023-01-24T01:48:35.395Z,12.55
2023-01-24T01:51:13.214Z,15.52
2023-01-24T01:53:45.238Z,16.52
2023-01-24T01:56:20.470Z,16.75
2023-01-24T01:58:46.782Z,15.43
2023-01-24T02:01:13.128Z,15.80
2023-01-24T02:03:43.994Z,16.90
2023-01-24T02:06:36.700Z,14.98
2023-01-24T02:09:05.237Z,13.30
2023-01-24T02:11:40.629Z,16.50
2023-01-24T02:14:27.069Z,15.98
2023-01-24T02:16:53.318Z,13.25
2023-01-24T02:19:32.851Z,10.88
2023-01-24T02:22:04.293Z,16.13
2023-01-24T02:24:35.038Z,17.52
2023-01-24T02:27:01.564Z,15.48
2023-01-24T02:29:27.764Z,17.38
2023-01-24T02:31:57.052Z,14.77
2023-01-24T02:34:23.533Z,16.13
2023-01-24T02:37:04.607Z,17.15
2023-01-24T02:42:00.414Z,15.60
2023-01-24T02:44:30.089Z,14.43
2023-01-24T02:46:56.287Z,16.98
2023-01-24T02:49:22.516Z,18.42
2023-01-24T02:52:07.309Z,16.90
2023-01-24T02:54:34.072Z,17.67
2023-01-24T02:57:19.149Z,15.10
2023-01-24T02:59:45.371Z,17.52
2023-01-24T03:02:11.635Z,17.05
2023-01-24T03:04:37.836Z,14.30
2023-01-24T03:07:04.177Z,16.33
2023-01-24T03:09:36.795Z,16.17
2023-01-24T03:12:22.477Z,16.75
2023-01-24T03:15:07.515Z,15.85
2023-01-24T03:17:52.281Z,16.23
2023-01-24T03:20:37.169Z,16.20
2023-01-24T03:23:21.963Z,15.73
2023-01-24T03:26:06.693Z,16.90
2023-01-24T03:28:51.454Z,12.75
2023-01-24T03:31:36.349Z,15.93
2023-01-24T03:34:21.087Z,16.83
2023-01-24T03:36:47.283Z,14.38
2023-01-24T03:39:32.336Z,19.70
2023-01-24T03:41:58.587Z,14.35
2023-01-24T03:44:24.770Z,14.77
2023-01-24T03:46:51.071Z,16.98
2023-01-24T03:49:17.814Z,16.23
2023-01-24T03:52:02.594Z,19.45
2023-01-24T03:54:28.802Z,18.45
2023-01-24T03:56:55.059Z,21.52
2023-01-24T03:59:21.379Z,17.48
2023-01-24T04:01:47.629Z,20.55
2023-01-24T04:04:13.821Z,16.67
2023-01-24T04:06:40.022Z,16.70
2023-01-24T04:09:06.263Z,19.00
2023-01-24T04:11:32.445Z,16.55
2023-01-24T04:13:58.633Z,18.60
2023-01-24T04:16:25.056Z,18.75
2023-01-24T04:18:51.297Z,17.52
2023-01-24T04:21:17.505Z,17.75
2023-01-24T04:23:43.732Z,18.02
2023-01-24T04:26:09.948Z,19.73
2023-01-24T04:28:36.143Z,18.77
2023-01-24T04:31:02.949Z,18.17
2023-01-24T04:33:29.410Z,17.95
2023-01-24T04:35:59.190Z,19.17
2023-01-24T04:38:25.443Z,18.42
2023-01-24T04:41:01.626Z,19.85
2023-01-24T04:43:28.384Z,17.33
2023-01-24T04:45:58.023Z,16.33
2023-01-24T04:48:24.306Z,17.90
2023-01-24T04:50:50.929Z,16.10
2023-01-24T04:53:17.112Z,17.75
2023-01-24T04:55:43.325Z,18.30
2023-01-24T04:58:09.605Z,17.25
2023-01-24T05:00:35.832Z,18.55
2023-01-24T05:03:02.095Z,18.35
2023-01-24T05:05:28.332Z,20.02
2023-01-24T05:07:54.541Z,18.85
2023-01-24T05:10:22.205Z,19.27
2023-01-24T05:12:48.499Z,17.63
2023-01-24T05:15:14.734Z,19.23
2023-01-24T05:17:43.677Z,22.70
2023-01-24T05:20:10.335Z,18.73
2023-01-24T05:22:36.734Z,21.85
2023-01-24T05:25:03.248Z,18.63
2023-01-24T05:27:29.485Z,16.63
2023-01-24T05:29:55.676Z,19.27
2023-01-24T05:32:21.997Z,18.08
2023-01-24T05:34:48.238Z,19.77
2023-01-24T05:37:14.514Z,21.35
2023-01-24T05:39:41.091Z,19.00
2023-01-24T05:42:07.333Z,19.80
2023-01-24T05:44:33.519Z,19.75
2023-01-24T05:46:59.782Z,18.58
2023-01-24T05:49:26.016Z,21.23
2023-01-24T05:51:52.251Z,21.10
2023-01-24T05:54:18.485Z,17.98
2023-01-24T05:56:44.691Z,19.42
2023-01-24T05:59:11.427Z,19.73
2023-01-24T06:01:37.643Z,18.02
2023-01-24T06:04:05.728Z,19.80
2023-01-24T06:06:32.009Z,17.95
2023-01-24T06:08:58.221Z,21.05
2023-01-24T06:11:27.535Z,21.48
2023-01-24T06:13:54.464Z,20.88
2023-01-24T06:16:21.879Z,22.00
2023-01-24T06:18:48.702Z,20.60
2023-01-24T06:21:28.787Z,19.58
2023-01-24T06:23:55.344Z,17.45
2023-01-24T06:26:21.726Z,17.95
2023-01-24T06:28:48.139Z,21.70
2023-01-24T06:31:24.086Z,23.55
2023-01-24T06:33:50.335Z,21.20
2023-01-24T06:36:19.612Z,21.00
2023-01-24T06:38:45.965Z,20.45
2023-01-24T06:41:15.287Z,21.95
2023-01-24T06:43:41.701Z,18.75
2023-01-24T06:46:09.173Z,19.17
2023-01-24T06:48:35.426Z,17.02
2023-01-24T06:51:01.761Z,20.83
2023-01-24T06:53:27.964Z,23.30
2023-01-24T06:55:54.258Z,13.85
2023-01-24T06:58:20.455Z,19.25
2023-01-24T07:00:46.837Z,19.80
2023-01-24T07:03:13.097Z,19.88
2023-01-24T07:05:39.871Z,20.40
2023-01-24T07:08:06.859Z,19.75
2023-01-24T07:10:33.612Z,20.40
2023-01-24T07:12:59.900Z,20.27
2023-01-24T07:15:26.121Z,21.10
2023-01-24T07:17:52.561Z,20.10
2023-01-24T07:20:18.972Z,21.58
2023-01-24T07:22:45.248Z,19.80
2023-01-24T07:25:15.935Z,20.30
2023-01-24T07:27:45.254Z,20.13
2023-01-24T07:30:12.582Z,17.95
2023-01-24T07:32:39.400Z,24.83
2023-01-24T07:35:06.013Z,20.52
2023-01-24T07:37:32.753Z,20.45
2023-01-24T07:39:58.963Z,23.05
2023-01-24T07:42:25.309Z,20.50
2023-01-24T07:44:51.607Z,19.02
2023-01-24T07:47:18.222Z,19.05
2023-01-24T07:49:44.457Z,19.52
2023-01-24T07:52:10.814Z,21.83
2023-01-24T07:54:37.029Z,21.95
2023-01-24T07:57:03.270Z,19.45
2023-01-24T07:59:38.341Z,20.77
2023-01-24T08:02:05.549Z,19.75
2023-01-24T08:04:32.102Z,20.88
2023-01-24T08:07:16.933Z,21.10
2023-01-24T08:09:43.400Z,20.63
2023-01-24T08:12:09.632Z,21.85
2023-01-24T08:14:35.913Z,21.90
2023-01-24T08:17:02.123Z,22.63
2023-01-24T08:19:53.864Z,15.82
2023-01-24T08:22:14.535Z,17.85
2023-01-24T08:24:40.780Z,21.00
2023-01-24T08:27:06.982Z,19.35
2023-01-24T08:29:33.823Z,17.08
2023-01-24T08:32:00.179Z,20.58
2023-01-24T08:34:26.672Z,20.63
2023-01-24T08:36:53.376Z,18.83
2023-01-24T08:39:24.689Z,21.15
2023-01-24T08:41:54.867Z,23.08
2023-01-24T08:44:21.131Z,20.83
2023-01-24T08:46:47.353Z,18.60
2023-01-24T08:49:13.644Z,22.00
2023-01-24T08:51:39.840Z,15.77
2023-01-24T08:54:06.783Z,16.83
2023-01-24T08:56:34.045Z,16.65
2023-01-24T08:59:00.260Z,18.08
2023-01-24T09:01:27.257Z,16.20
2023-01-24T09:03:55.743Z,19.10
2023-01-24T09:06:22.090Z,15.93
2023-01-24T09:08:48.375Z,14.15
2023-01-24T09:11:14.621Z,16.25
2023-01-24T09:13:40.906Z,14.65
2023-01-24T09:16:07.273Z,13.50
2023-01-24T09:18:33.502Z,16.33
2023-01-24T09:21:03.650Z,16.58
2023-01-24T09:23:30.191Z,15.40
2023-01-24T09:25:56.583Z,12.57
2023-01-24T09:28:22.826Z,16.90
2023-01-24T09:30:49.836Z,15.75
2023-01-24T09:33:18.002Z,13.90
2023-01-24T09:35:53.929Z,17.00
2023-01-24T09:38:20.869Z,16.73
2023-01-24T09:40:51.577Z,15.20
2023-01-24T09:43:33.023Z,13.63
2023-01-24T09:46:05.837Z,14.80
2023-01-24T09:48:33.944Z,14.65
2023-01-24T09:51:02.763Z,15.20
2023-01-24T09:53:38.085Z,16.70
2023-01-24T09:56:05.554Z,15.50
2023-01-24T09:58:40.919Z,15.07
2023-01-24T10:01:11.840Z,20.35
2023-01-24T10:03:38.569Z,14.95
2023-01-24T10:06:13.571Z,14.18
2023-01-24T10:08:54.500Z,17.15
2023-01-24T10:11:25.890Z,14.80
2023-01-24T10:14:00.727Z,14.68
2023-01-24T10:16:33.111Z,15.85
2023-01-24T10:19:02.358Z,17.45
2023-01-24T10:21:28.576Z,14.48
2023-01-24T10:23:57.129Z,12.65
2023-01-24T10:26:26.180Z,13.65
2023-01-24T10:28:54.224Z,13.48
2023-01-24T10:31:38.095Z,13.98
2023-01-24T10:34:16.957Z,10.85
2023-01-24T10:36:51.392Z,13.32
2023-01-24T10:39:17.598Z,11.05
2023-01-24T10:41:43.813Z,10.90
2023-01-24T10:44:15.331Z,15.00
2023-01-24T10:47:00.306Z,15.07
2023-01-24T10:49:28.733Z,13.40
2023-01-24T10:52:13.914Z,12.73
2023-01-24T10:54:44.199Z,12.35
2023-01-24T10:57:25.636Z,11.35
2023-01-24T10:59:52.179Z,11.18
2023-01-24T11:02:23.144Z,10.40
2023-01-24T11:07:27.831Z,13.98
2023-01-24T11:09:54.068Z,12.40
2023-01-24T11:12:21.562Z,10.65
2023-01-24T11:14:49.296Z,10.50
2023-01-24T11:17:32.721Z,12.73
2023-01-24T11:20:37.539Z,12.63
2023-01-24T11:23:16.115Z,13.77
2023-01-24T11:25:54.311Z,11.43
2023-01-24T11:28:27.255Z,12.35
2023-01-24T11:30:55.309Z,11.98
2023-01-24T11:33:40.426Z,10.48
2023-01-24T11:36:23.662Z,17.88
2023-01-24T11:38:50.147Z,10.02
2023-01-24T11:41:22.792Z,12.32
2023-01-24T11:44:07.391Z,9.20
2023-01-24T11:46:45.838Z,11.38
2023-01-24T11:49:15.178Z,13.77
2023-01-24T11:51:54.357Z,12.75
2023-01-24T11:54:40.860Z,18.95
2023-01-24T11:57:07.290Z,13.55
2023-01-24T11:59:33.500Z,12.88
2023-01-24T12:02:05.637Z,12.15
2023-01-24T12:04:50.783Z,12.32
2023-01-24T12:07:22.313Z,10.98
2023-01-24T12:09:50.037Z,14.38
2023-01-24T12:12:31.899Z,13.52
2023-01-24T12:15:01.220Z,10.02
2023-01-24T12:17:42.860Z,10.00
2023-01-24T12:20:31.568Z,9.85
2023-01-24T12:23:00.284Z,8.70
2023-01-24T12:25:31.292Z,14.85
2023-01-24T12:30:30.019Z,10.93
2023-01-24T12:33:03.309Z,15.93
2023-01-24T12:35:34.375Z,10.10
2023-01-24T12:40:52.237Z,12.38
2023-01-24T12:43:37.179Z,14.38
2023-01-24T12:46:12.229Z,11.10
2023-01-24T12:48:38.486Z,9.50
2023-01-24T12:51:04.727Z,10.70
2023-01-24T12:53:35.290Z,12.30
2023-01-24T12:56:04.305Z,12.48
2023-01-24T12:58:33.226Z,13.27
2023-01-24T13:01:10.898Z,12.85
2023-01-24T13:03:45.351Z,9.75
2023-01-24T13:06:30.284Z,10.93
2023-01-24T13:08:56.692Z,15.88
2023-01-24T13:11:29.149Z,13.05
2023-01-24T13:13:58.718Z,11.52
2023-01-24T13:16:40.288Z,14.57
2023-01-24T13:19:09.544Z,10.95
2023-01-24T13:21:49.845Z,13.30
2023-01-24T13:24:28.110Z,13.07
2023-01-24T13:26:57.370Z,29.45
2023-01-24T13:29:32.702Z,15.30
2023-01-24T13:32:13.652Z,11.73
2023-01-24T13:34:45.060Z,25.27
2023-01-24T13:37:17.468Z,10.25
2023-01-24T13:39:44.769Z,13.55
2023-01-24T13:42:20.287Z,12.45
2023-01-24T13:44:46.541Z,12.85
2023-01-24T13:47:19.054Z,12.43
2023-01-24T13:49:46.607Z,10.82
2023-01-24T13:52:31.545Z,13.07
2023-01-24T13:54:57.886Z,11.80
2023-01-24T13:57:26.132Z,13.45
2023-01-24T14:00:10.726Z,10.82
2023-01-24T14:02:37.450Z,10.57
2023-01-24T14:05:03.795Z,10.60
2023-01-24T14:07:32.040Z,11.00
2023-01-24T14:09:59.947Z,14.30
2023-01-24T14:12:26.408Z,10.82
2023-01-24T14:15:11.167Z,8.55
2023-01-24T14:17:37.392Z,10.85
2023-01-24T14:20:04.369Z,11.20
2023-01-24T14:22:34.485Z,14.57
2023-01-24T14:25:25.477Z,13.30
2023-01-24T14:27:56.014Z,12.48
2023-01-24T14:30:28.118Z,10.55
2023-01-24T14:32:58.031Z,10.32
2023-01-24T14:35:28.156Z,10.93
2023-01-24T14:37:54.718Z,10.60
2023-01-24T14:40:21.019Z,13.25
2023-01-24T14:42:51.710Z,13.88
2023-01-24T14:45:20.806Z,11.52
2023-01-24T14:47:48.184Z,11.02
2023-01-24T14:50:34.027Z,10.23
2023-01-24T14:53:01.035Z,9.35
2023-01-24T14:55:27.246Z,12.90
2023-01-24T14:57:54.152Z,10.60
2023-01-24T15:00:21.783Z,11.80
2023-01-24T15:02:52.295Z,12.82
2023-01-24T15:05:23.223Z,13.88
2023-01-24T15:07:49.510Z,11.85
2023-01-24T15:10:16.109Z,12.63
2023-01-24T15:12:42.370Z,12.75
2023-01-24T15:15:16.185Z,12.55
2023-01-24T15:17:44.898Z,12.73
2023-01-24T15:20:12.004Z,13.60
2023-01-24T15:22:39.532Z,12.50
2023-01-24T15:25:19.080Z,12.05
2023-01-24T15:27:45.516Z,13.10
2023-01-24T15:30:17.528Z,15.25
2023-01-24T15:32:45.187Z,12.80
2023-01-24T15:35:20.266Z,14.60
2023-01-24T15:37:46.520Z,13.77
2023-01-24T15:40:18.053Z,12.23
2023-01-24T15:43:06.946Z,12.30
2023-01-24T15:45:39.003Z,14.43
2023-01-24T15:48:11.500Z,17.83
2023-01-24T15:50:56.633Z,14.45
2023-01-24T15:53:29.619Z,12.77
2023-01-24T15:56:04.543Z,15.57
2023-01-24T15:58:32.042Z,17.80
2023-01-24T16:00:59.225Z,22.48
2023-01-24T16:03:25.936Z,15.35
2023-01-24T16:05:52.251Z,15.85
2023-01-24T16:08:19.077Z,16.00
2023-01-24T16:10:46.058Z,20.20
2023-01-24T16:13:25.737Z,18.10
2023-01-24T16:15:52.016Z,17.88
2023-01-24T16:18:18.292Z,16.65
2023-01-24T16:20:44.560Z,16.80
2023-01-24T16:23:10.758Z,16.75
2023-01-24T16:25:37.255Z,13.63
2023-01-24T16:28:04.161Z,17.00
2023-01-24T16:30:30.424Z,13.32
2023-01-24T16:32:56.753Z,14.73
2023-01-24T16:35:23.246Z,13.52
2023-01-24T16:37:49.452Z,16.77
2023-01-24T16:40:16.928Z,15.10
2023-01-24T16:42:44.548Z,15.82
2023-01-24T16:45:15.264Z,14.68
2023-01-24T16:47:41.555Z,15.18
2023-01-24T16:50:08.211Z,14.98
2023-01-24T16:52:34.407Z,19.67
2023-01-24T16:55:00.665Z,16.63
2023-01-24T16:57:26.871Z,16.98
2023-01-24T16:59:53.052Z,20.45
2023-01-24T17:02:19.432Z,15.38
2023-01-24T17:04:47.819Z,15.55
2023-01-24T17:07:14.438Z,14.50
2023-01-24T17:09:40.690Z,17.05
2023-01-24T17:12:14.440Z,14.25
2023-01-24T17:14:42.183Z,13.30
2023-01-24T17:17:28.519Z,18.10
2023-01-24T17:19:54.744Z,15.93
2023-01-24T17:22:21.009Z,16.90
2023-01-24T17:24:47.227Z,14.73
2023-01-24T17:27:13.840Z,18.77
2023-01-24T17:29:40.071Z,16.52
2023-01-24T17:32:06.676Z,18.60
2023-01-24T17:34:32.991Z,18.13
2023-01-24T17:36:59.495Z,16.65
2023-01-24T17:39:25.721Z,16.75
2023-01-24T17:41:52.001Z,18.40
2023-01-24T17:44:18.623Z,18.90
2023-01-24T17:46:45.318Z,20.85
2023-01-24T17:49:11.696Z,17.95
2023-01-24T17:51:37.948Z,16.98
2023-01-24T17:54:04.880Z,17.00
2023-01-24T17:56:32.269Z,17.45
2023-01-24T17:58:58.873Z,16.38
2023-01-24T18:01:25.074Z,16.60
2023-01-24T18:03:51.286Z,18.95
2023-01-24T18:06:18.805Z,18.33
2023-01-24T18:08:47.179Z,20.42
2023-01-24T18:11:14.995Z,16.45
2023-01-24T18:13:42.130Z,15.93
2023-01-24T18:16:10.208Z,21.50
2023-01-24T18:18:37.204Z,19.25
2023-01-24T18:21:09.538Z,22.95
2023-01-24T18:23:35.776Z,16.08
2023-01-24T18:26:02.312Z,17.77
2023-01-24T18:28:28.572Z,14.20
2023-01-24T18:30:54.790Z,16.95
2023-01-24T18:33:21.057Z,20.20
2023-01-24T18:35:47.259Z,16.27
2023-01-24T18:38:13.516Z,14.65
2023-01-24T18:40:39.723Z,18.17
2023-01-24T18:43:06.325Z,18.73
2023-01-24T18:45:32.557Z,18.92
2023-01-24T18:47:58.813Z,20.38
2023-01-24T18:50:25.025Z,16.38
2023-01-24T18:52:55.164Z,14.32
2023-01-24T18:55:21.462Z,14.77
2023-01-24T18:57:47.701Z,17.83
2023-01-24T19:00:14.165Z,19.73
2023-01-24T19:02:43.536Z,16.90
2023-01-24T19:05:09.721Z,15.18
2023-01-24T19:07:39.377Z,15.13
2023-01-24T19:10:08.733Z,15.65
2023-01-24T19:12:35.338Z,14.65
2023-01-24T19:15:01.608Z,15.18
2023-01-24T19:17:29.245Z,14.15
2023-01-24T19:19:55.571Z,14.65
2023-01-24T19:22:23.018Z,14.02
2023-01-24T19:24:49.515Z,15.30
2023-01-24T19:27:16.795Z,15.88
2023-01-24T19:29:43.919Z,13.57
2023-01-24T19:32:10.154Z,14.88
2023-01-24T19:34:36.360Z,14.18
2023-01-24T19:37:02.560Z,14.77
2023-01-24T19:39:28.832Z,17.13
2023-01-24T19:41:55.037Z,20.60
2023-01-24T19:44:22.366Z,15.55
2023-01-24T19:46:49.851Z,16.27
2023-01-24T19:49:16.735Z,23.30
2023-01-24T19:51:42.957Z,28.20
2023-01-24T19:54:09.196Z,26.33
2023-01-24T19:56:36.979Z,27.20
2023-01-24T19:59:04.125Z,16.58
2023-01-24T20:01:30.363Z,15.93
2023-01-24T20:04:02.767Z,18.30
2023-01-24T20:06:36.956Z,17.53
2023-01-24T20:09:03.439Z,20.90
2023-01-24T20:11:29.778Z,14.95
2023-01-24T20:13:56.240Z,19.02
2023-01-24T20:16:23.922Z,18.48
2023-01-24T20:18:51.343Z,17.88
2023-01-24T20:21:17.683Z,18.40
2023-01-24T20:23:44.118Z,16.60
2023-01-24T20:26:10.513Z,15.60
2023-01-24T20:28:37.247Z,17.33
2023-01-24T20:31:04.636Z,19.40
2023-01-24T20:33:30.878Z,17.55
2023-01-24T20:35:57.855Z,16.30
2023-01-24T20:38:32.490Z,18.02
2023-01-24T20:41:04.080Z,17.67
2023-01-24T20:43:30.585Z,16.45
2023-01-24T20:46:04.007Z,16.25
2023-01-24T20:48:30.568Z,15.60
2023-01-24T20:50:57.292Z,15.43
2023-01-24T20:53:23.564Z,18.73
2023-01-24T20:55:56.582Z,18.48
2023-01-24T20:58:23.332Z,18.13
2023-01-24T21:00:50.425Z,17.50
2023-01-24T21:03:17.025Z,20.67
2023-01-24T21:05:43.406Z,17.08
2023-01-24T21:08:09.637Z,17.13
2023-01-24T21:10:36.162Z,16.23
2023-01-24T21:13:02.849Z,14.30
2023-01-24T21:15:29.093Z,17.67
2023-01-24T21:17:55.361Z,15.48
2023-01-24T21:20:21.713Z,19.63
2023-01-24T21:22:51.603Z,16.73
2023-01-24T21:25:17.808Z,16.20
2023-01-24T21:27:44.073Z,15.45
2023-01-24T21:30:10.570Z,16.00
2023-01-24T21:32:36.766Z,17.08
2023-01-24T21:35:03.031Z,18.23
2023-01-24T21:37:30.242Z,15.07
2023-01-24T21:39:56.456Z,13.05
2023-01-24T21:42:22.697Z,17.13
2023-01-24T21:44:48.947Z,16.35
2023-01-24T21:47:17.421Z,16.27
2023-01-24T21:49:44.210Z,17.23
2023-01-24T21:52:11.814Z,17.25
2023-01-24T21:54:38.510Z,16.63
2023-01-24T21:57:31.210Z,14.52
2023-01-24T21:59:59.574Z,16.35
2023-01-24T22:02:27.224Z,16.92
2023-01-24T22:04:54.332Z,18.80
2023-01-24T22:07:22.548Z,17.38
2023-01-24T22:09:50.750Z,16.85
2023-01-24T22:12:16.984Z,15.25
2023-01-24T22:14:43.649Z,14.93
2023-01-24T22:17:14.295Z,17.08
2023-01-24T22:19:44.627Z,17.08
2023-01-24T22:22:20.517Z,17.38
2023-01-24T22:24:52.543Z,16.90
2023-01-24T22:27:20.036Z,16.65
2023-01-24T22:29:47.505Z,17.13
2023-01-24T22:32:14.590Z,16.50
2023-01-24T22:34:41.353Z,17.52
2023-01-24T22:37:13.780Z,17.65
2023-01-24T22:39:40.033Z,19.00
2023-01-24T22:42:06.232Z,17.77
2023-01-24T22:44:32.453Z,21.00
2023-01-24T22:46:58.666Z,19.98
2023-01-24T22:49:24.882Z,18.00
2023-01-24T22:51:51.086Z,16.80
2023-01-24T22:54:17.358Z,17.42
2023-01-24T22:56:43.608Z,16.55
2023-01-24T22:59:09.799Z,16.02
2023-01-24T23:01:36.482Z,18.27
2023-01-24T23:04:07.094Z,18.92
2023-01-24T23:06:33.731Z,18.45
2023-01-24T23:09:00.003Z,17.27
2023-01-24T23:11:26.201Z,18.60
2023-01-24T23:14:11.053Z,19.90
2023-01-24T23:16:50.789Z,17.20
2023-01-24T23:19:50.220Z,17.65
2023-01-24T23:22:17.090Z,17.35
2023-01-24T23:24:43.733Z,17.15
2023-01-24T23:27:09.925Z,18.52
2023-01-24T23:29:36.078Z,16.08
2023-01-24T23:32:03.740Z,19.45
2023-01-24T23:34:39.470Z,19.65
2023-01-24T23:37:05.721Z,18.48
2023-01-24T23:39:32.232Z,17.13
2023-01-24T23:41:58.463Z,19.08
2023-01-24T23:44:24.712Z,16.73
2023-01-24T23:46:50.896Z,21.10
2023-01-24T23:49:17.094Z,19.88
2023-01-24T23:51:43.428Z,18.27
2023-01-24T23:54:09.776Z,20.30
2023-01-24T23:56:35.985Z,16.95
2023-01-24T23:59:02.189Z,20.48
